Patriot — WDC2859 — position and weather

sailwx.info

Track history (hours):
 
Tides and Currents Weather Stations Pressure Air Temp Water Temp Dewpoint Dewpoint Depression Visibility Wind Speed Wind Dir Waves Ship Positions

Patriot

Owner: AMNAV Maritime Corporation, Oakland, CA. More information available from US FCC via Universal Licensing System and Coast Guard Vessel Documentation Center.

Last reported at 2015-May-22 08:33 UTC. Time now 2015-May-22 08:36 UTC.
Position N 37°49' W 122°19'.

Length 31 m; draft 4.6 m.

Type: Tug. MMSI: 366998680.

Date/timePositionNaut miles runAvg speedWind from/ knotsBaromVisibWave heightAir tempDewpointWater temp
2015-May-22 08:33N 37°49' W 122°19'0 0.0
2015-May-22 07:33N 37°49' W 122°19'0 0.0
2015-May-22 06:33N 37°49' W 122°19'0 0.0
2015-May-22 05:33N 37°49' W 122°19'0 0.0
2015-May-22 04:33N 37°49' W 122°19'0 0.0
2015-May-22 03:31N 37°49' W 122°19'0 0.0
2015-May-22 02:33N 37°49' W 122°19'7 7.1
2015-May-22 01:32N 37°42' W 122°20'9 9.6
2015-May-22 00:33N 37°34' W 122°13'3 1.4
2015-May-21 22:33N 37°32' W 122°12'1 1.1
2015-May-21 21:29N 37°31' W 122°13'0 0.0
2015-May-21 20:28N 37°31' W 122°13'8 9.2
2015-May-21 19:33N 37°38' W 122°18'1110.6
2015-May-21 18:33N 37°48' W 122°20'2 1.6
2015-May-21 17:32N 37°49' W 122°19'0 0.0
2015-May-21 16:32N 37°49' W 122°19'0 0.0
2015-May-21 15:33N 37°49' W 122°19'0 0.0
2015-May-21 14:32N 37°49' W 122°19'0 0.0
2015-May-21 13:33N 37°49' W 122°19'0 0.0
2015-May-21 12:33N 37°49' W 122°19'0 0.0
2015-May-21 11:33N 37°49' W 122°19'0 0.0
2015-May-21 10:33N 37°49' W 122°19'0 0.0
2015-May-21 09:33N 37°49' W 122°19'1 1.0
2015-May-21 08:33N 37°49' W 122°20'0 0.1
2015-May-21 07:33N 37°49' W 122°20'0 0.3
2015-May-21 06:33N 37°49' W 122°19'1 0.6
2015-May-21 05:33N 37°49' W 122°19'0 0.0
2015-May-21 04:33N 37°49' W 122°19'0 0.0
2015-May-21 03:33N 37°49' W 122°19'0 0.0
2015-May-21 02:32N 37°49' W 122°19'0 0.2
2015-May-21 01:33N 37°49' W 122°19'0 0.2
2015-May-21 00:33N 37°49' W 122°19'0 0.0
2015-May-20 23:33N 37°49' W 122°19'0 0.0
2015-May-20 22:33N 37°49' W 122°19'0 0.0
2015-May-20 21:33N 37°49' W 122°19'0 0.0
2015-May-20 20:33N 37°49' W 122°19'0 0.0
2015-May-20 19:33N 37°49' W 122°19'0 0.0
2015-May-20 18:33N 37°49' W 122°19'0 0.0
2015-May-20 17:33N 37°49' W 122°19'0 0.0
2015-May-20 16:33N 37°49' W 122°19'0 0.0
2015-May-20 15:33N 37°49' W 122°19'0 0.0
2015-May-20 14:33N 37°49' W 122°19'0 0.0
2015-May-20 13:33N 37°49' W 122°19'0 0.0
2015-May-20 12:33N 37°49' W 122°19'0 0.0
2015-May-20 11:33N 37°49' W 122°19'0 0.0
2015-May-20 10:33N 37°49' W 122°19'0 0.0
2015-May-20 09:33N 37°49' W 122°19'0 0.0
2015-May-20 08:33N 37°49' W 122°19'0 0.0
2015-May-20 07:33N 37°49' W 122°19'0 0.0
2015-May-20 06:33N 37°49' W 122°19'2 1.8
2015-May-20 05:33N 37°48' W 122°18'0 0.0
2015-May-20 04:33N 37°48' W 122°18'0 0.0
2015-May-20 03:33N 37°48' W 122°18'1 1.3
2015-May-20 02:33N 37°48' W 122°19'2 1.6
2015-May-20 01:33N 37°49' W 122°19'1 0.5
2015-May-20 00:33N 37°49' W 122°19'1 1.3
2015-May-19 23:33N 37°48' W 122°21'1 1.5
2015-May-19 22:33N 37°49' W 122°19'0 0.3
2015-May-19 21:33N 37°49' W 122°19'0 0.0
2015-May-19 20:33N 37°49' W 122°19'0 0.0
2015-May-19 19:33N 37°49' W 122°19'0 0.0
2015-May-19 18:33N 37°49' W 122°19'6 6.0
2015-May-19 17:33N 37°54' W 122°23'1 1.1
2015-May-19 16:33N 37°55' W 122°22'0 0.2
2015-May-19 15:33N 37°55' W 122°22'0 0.0
2015-May-19 14:32N 37°55' W 122°22'0 0.0
2015-May-19 13:31N 37°55' W 122°22'0 0.0
2015-May-19 12:33N 37°55' W 122°22'0 0.0
2015-May-19 11:33N 37°55' W 122°22'0 0.0
2015-May-19 10:33N 37°55' W 122°22'0 0.0
2015-May-19 09:33N 37°55' W 122°22'0 0.0
2015-May-19 08:22N 37°55' W 122°22'1 1.3
2015-May-19 07:33N 37°54' W 122°22'1 0.9
2015-May-19 06:33N 37°55' W 122°22'7 6.6
2015-May-19 05:33N 37°49' W 122°21'2 1.8
2015-May-19 04:33N 37°49' W 122°19'1 1.0
2015-May-19 03:33N 37°49' W 122°20'1 0.8
2015-May-19 02:33N 37°48' W 122°21'0 0.0
2015-May-19 01:33N 37°48' W 122°21'1 1.5
2015-May-19 00:33N 37°49' W 122°19'2 2.0
2015-May-18 23:33N 37°48' W 122°21'2 2.2
2015-May-18 22:33N 37°49' W 122°19'0 0.0
2015-May-18 21:33N 37°49' W 122°19'0 0.0
2015-May-18 20:33N 37°49' W 122°19'0 0.0
2015-May-18 19:33N 37°49' W 122°19'0 0.0
2015-May-18 18:33N 37°49' W 122°19'0 0.0
2015-May-18 17:33N 37°49' W 122°19'0 0.0
2015-May-18 16:33N 37°49' W 122°19'0 0.0
2015-May-18 15:33N 37°49' W 122°19'0 0.0
2015-May-18 14:33N 37°49' W 122°19'0 0.0
2015-May-18 13:33N 37°49' W 122°19'0 0.0
2015-May-18 12:33N 37°49' W 122°19'0 0.0
2015-May-18 11:33N 37°49' W 122°19'0 0.0
2015-May-18 10:33N 37°49' W 122°19'0 0.0
2015-May-18 09:33N 37°49' W 122°19'0 0.0
2015-May-18 08:33N 37°49' W 122°19'0 0.0
2015-May-18 07:33N 37°49' W 122°19'0 0.0
2015-May-18 06:32N 37°49' W 122°19'0 0.0
2015-May-18 05:33N 37°49' W 122°19'0 0.0
2015-May-18 04:33N 37°49' W 122°19'0 0.0
2015-May-18 03:33N 37°49' W 122°19'0 0.0
2015-May-18 02:31N 37°49' W 122°19'1 1.5
2015-May-18 01:33N 37°49' W 122°20'12 9.3
2015-May-18 00:19N 37°60' W 122°25'1010.1
2015-May-17 23:21N 38°04' W 122°14'1 1.0
2015-May-17 22:06N 38°04' W 122°15'5 0.4
2015-May-17 09:08N 38°02' W 122°09'711.1
2015-May-17 08:30N 38°03' W 122°18'10 9.7
2015-May-17 07:30N 37°55' W 122°25'2 2.1
2015-May-17 06:33N 37°55' W 122°22'1 0.9
2015-May-17 05:32N 37°54' W 122°22'3 2.7
2015-May-17 04:33N 37°54' W 122°25'2 1.7
2015-May-17 03:33N 37°54' W 122°23'0 0.0
2015-May-17 02:33N 37°54' W 122°23'0 0.0
2015-May-17 01:33N 37°54' W 122°23'0 0.0
2015-May-17 00:33N 37°54' W 122°23'0 0.0
2015-May-16 23:33N 37°54' W 122°23'1 1.1
2015-May-16 22:33N 37°55' W 122°22'7 7.0
2015-May-16 21:33N 38°02' W 122°22'11 0.4
2015-May-15 14:14N 38°02' W 122°08'3 0.4
2015-May-15 08:20N 38°03' W 122°11'1 1.2
2015-May-15 07:33N 38°03' W 122°12'1 0.1
2015-May-14 17:31N 38°04' W 122°13'1210.5
2015-May-14 16:20N 37°56' W 122°26'810.8
2015-May-14 15:33N 37°49' W 122°21'2 1.9
2015-May-14 14:33N 37°49' W 122°19'0 0.0
2015-May-14 13:33N 37°49' W 122°19'0 0.0
2015-May-14 12:33N 37°49' W 122°19'0 0.0
2015-May-14 11:33N 37°49' W 122°19'0 0.0
2015-May-14 10:33N 37°49' W 122°19'0 0.0
2015-May-14 09:33N 37°49' W 122°19'0 0.0
2015-May-14 08:33N 37°49' W 122°19'0 0.0
2015-May-14 07:33N 37°49' W 122°19'0 0.0
2015-May-14 06:33N 37°49' W 122°19'6 5.6
2015-May-14 05:33N 37°53' W 122°24'2 2.4
2015-May-14 04:33N 37°54' W 122°22'3 2.8
2015-May-14 03:33N 37°54' W 122°25'2 1.7
2015-May-14 02:31N 37°55' W 122°23'1 0.5
2015-May-14 01:32N 37°54' W 122°23'1 0.9
2015-May-14 00:32N 37°55' W 122°22'2 2.2
2015-May-13 23:33N 37°55' W 122°25'1 1.2
2015-May-13 22:33N 37°55' W 122°23'0 0.0
2015-May-13 21:33N 37°55' W 122°23'0 0.0
2015-May-13 20:33N 37°55' W 122°23'0 0.0
2015-May-13 19:33N 37°55' W 122°23'0 0.0
2015-May-13 18:33N 37°55' W 122°23'0 0.0
2015-May-13 17:34N 37°55' W 122°23'0 0.0
2015-May-13 16:33N 37°55' W 122°23'0 0.0
2015-May-13 15:33N 37°55' W 122°23'1 1.1
2015-May-13 14:32N 37°55' W 122°22'3 2.8
2015-May-13 13:33N 37°56' W 122°26'5 4.8
2015-May-13 12:30N 38°01' W 122°24'9 8.3
2015-May-13 11:28N 38°04' W 122°13'2 0.1
2015-May-12 20:16N 38°03' W 122°11'6 7.2
2015-May-12 19:29N 38°03' W 122°18'7 7.4
2015-May-12 18:30N 37°59' W 122°26'8 8.8
2015-May-12 17:33N 37°51' W 122°23'4 3.7
2015-May-12 16:33N 37°49' W 122°19'0 0.0
2015-May-12 15:33N 37°49' W 122°19'0 0.0
2015-May-12 14:33N 37°49' W 122°19'1 0.9
2015-May-12 13:33N 37°49' W 122°20'1 0.9
2015-May-12 12:33N 37°49' W 122°19'0 0.0
2015-May-12 11:33N 37°49' W 122°19'0 0.0
2015-May-12 10:33N 37°49' W 122°19'0 0.0
2015-May-12 09:33N 37°49' W 122°19'0 0.0
2015-May-12 08:33N 37°49' W 122°19'0 0.0
2015-May-12 07:33N 37°49' W 122°19'  
Track history (hours):
 
Tides and Currents Weather Stations Pressure Air Temp Water Temp Dewpoint Dewpoint Depression Visibility Wind Speed Wind Dir Waves Ship Positions

Patriot

Owner: AMNAV Maritime Corporation, Oakland, CA. More information available from US FCC via Universal Licensing System and Coast Guard Vessel Documentation Center.

Last reported at 2015-May-22 08:33 UTC. Time now 2015-May-22 08:36 UTC.
Position N 37°49' W 122°19'.

Length 31 m; draft 4.6 m.

Type: Tug. MMSI: 366998680.

Date/timePositionNaut miles runAvg speedWind from/ knotsBaromVisibWave heightAir tempDewpointWater temp
2015-May-22 08:33N 37°49' W 122°19'0 0.0
2015-May-22 07:33N 37°49' W 122°19'0 0.0
2015-May-22 06:33N 37°49' W 122°19'0 0.0
2015-May-22 05:33N 37°49' W 122°19'0 0.0
2015-May-22 04:33N 37°49' W 122°19'0 0.0
2015-May-22 03:31N 37°49' W 122°19'0 0.0
2015-May-22 02:33N 37°49' W 122°19'7 7.1
2015-May-22 01:32N 37°42' W 122°20'9 9.6
2015-May-22 00:33N 37°34' W 122°13'3 1.4
2015-May-21 22:33N 37°32' W 122°12'1 1.1
2015-May-21 21:29N 37°31' W 122°13'0 0.0
2015-May-21 20:28N 37°31' W 122°13'8 9.2
2015-May-21 19:33N 37°38' W 122°18'1110.6
2015-May-21 18:33N 37°48' W 122°20'2 1.6
2015-May-21 17:32N 37°49' W 122°19'0 0.0
2015-May-21 16:32N 37°49' W 122°19'0 0.0
2015-May-21 15:33N 37°49' W 122°19'0 0.0
2015-May-21 14:32N 37°49' W 122°19'0 0.0
2015-May-21 13:33N 37°49' W 122°19'0 0.0
2015-May-21 12:33N 37°49' W 122°19'0 0.0
2015-May-21 11:33N 37°49' W 122°19'0 0.0
2015-May-21 10:33N 37°49' W 122°19'0 0.0
2015-May-21 09:33N 37°49' W 122°19'1 1.0
2015-May-21 08:33N 37°49' W 122°20'0 0.1
2015-May-21 07:33N 37°49' W 122°20'0 0.3
2015-May-21 06:33N 37°49' W 122°19'1 0.6
2015-May-21 05:33N 37°49' W 122°19'0 0.0
2015-May-21 04:33N 37°49' W 122°19'0 0.0
2015-May-21 03:33N 37°49' W 122°19'0 0.0
2015-May-21 02:32N 37°49' W 122°19'0 0.2
2015-May-21 01:33N 37°49' W 122°19'0 0.2
2015-May-21 00:33N 37°49' W 122°19'0 0.0
2015-May-20 23:33N 37°49' W 122°19'0 0.0
2015-May-20 22:33N 37°49' W 122°19'0 0.0
2015-May-20 21:33N 37°49' W 122°19'0 0.0
2015-May-20 20:33N 37°49' W 122°19'0 0.0
2015-May-20 19:33N 37°49' W 122°19'0 0.0
2015-May-20 18:33N 37°49' W 122°19'0 0.0
2015-May-20 17:33N 37°49' W 122°19'0 0.0
2015-May-20 16:33N 37°49' W 122°19'0 0.0
2015-May-20 15:33N 37°49' W 122°19'0 0.0
2015-May-20 14:33N 37°49' W 122°19'0 0.0
2015-May-20 13:33N 37°49' W 122°19'0 0.0
2015-May-20 12:33N 37°49' W 122°19'0 0.0
2015-May-20 11:33N 37°49' W 122°19'0 0.0
2015-May-20 10:33N 37°49' W 122°19'0 0.0
2015-May-20 09:33N 37°49' W 122°19'0 0.0
2015-May-20 08:33N 37°49' W 122°19'0 0.0
2015-May-20 07:33N 37°49' W 122°19'0 0.0
2015-May-20 06:33N 37°49' W 122°19'2 1.8
2015-May-20 05:33N 37°48' W 122°18'0 0.0
2015-May-20 04:33N 37°48' W 122°18'0 0.0
2015-May-20 03:33N 37°48' W 122°18'1 1.3
2015-May-20 02:33N 37°48' W 122°19'2 1.6
2015-May-20 01:33N 37°49' W 122°19'1 0.5
2015-May-20 00:33N 37°49' W 122°19'1 1.3
2015-May-19 23:33N 37°48' W 122°21'1 1.5
2015-May-19 22:33N 37°49' W 122°19'0 0.3
2015-May-19 21:33N 37°49' W 122°19'0 0.0
2015-May-19 20:33N 37°49' W 122°19'0 0.0
2015-May-19 19:33N 37°49' W 122°19'0 0.0
2015-May-19 18:33N 37°49' W 122°19'6 6.0
2015-May-19 17:33N 37°54' W 122°23'1 1.1
2015-May-19 16:33N 37°55' W 122°22'0 0.2
2015-May-19 15:33N 37°55' W 122°22'0 0.0
2015-May-19 14:32N 37°55' W 122°22'0 0.0
2015-May-19 13:31N 37°55' W 122°22'0 0.0
2015-May-19 12:33N 37°55' W 122°22'0 0.0
2015-May-19 11:33N 37°55' W 122°22'0 0.0
2015-May-19 10:33N 37°55' W 122°22'0 0.0
2015-May-19 09:33N 37°55' W 122°22'0 0.0
2015-May-19 08:22N 37°55' W 122°22'1 1.3
2015-May-19 07:33N 37°54' W 122°22'1 0.9
2015-May-19 06:33N 37°55' W 122°22'7 6.6
2015-May-19 05:33N 37°49' W 122°21'2 1.8
2015-May-19 04:33N 37°49' W 122°19'1 1.0
2015-May-19 03:33N 37°49' W 122°20'1 0.8
2015-May-19 02:33N 37°48' W 122°21'0 0.0
2015-May-19 01:33N 37°48' W 122°21'1 1.5
2015-May-19 00:33N 37°49' W 122°19'2 2.0
2015-May-18 23:33N 37°48' W 122°21'2 2.2
2015-May-18 22:33N 37°49' W 122°19'0 0.0
2015-May-18 21:33N 37°49' W 122°19'0 0.0
2015-May-18 20:33N 37°49' W 122°19'0 0.0
2015-May-18 19:33N 37°49' W 122°19'0 0.0
2015-May-18 18:33N 37°49' W 122°19'0 0.0
2015-May-18 17:33N 37°49' W 122°19'0 0.0
2015-May-18 16:33N 37°49' W 122°19'0 0.0
2015-May-18 15:33N 37°49' W 122°19'0 0.0
2015-May-18 14:33N 37°49' W 122°19'0 0.0
2015-May-18 13:33N 37°49' W 122°19'0 0.0
2015-May-18 12:33N 37°49' W 122°19'0 0.0
2015-May-18 11:33N 37°49' W 122°19'0 0.0
2015-May-18 10:33N 37°49' W 122°19'0 0.0
2015-May-18 09:33N 37°49' W 122°19'0 0.0
2015-May-18 08:33N 37°49' W 122°19'0 0.0
2015-May-18 07:33N 37°49' W 122°19'0 0.0
2015-May-18 06:32N 37°49' W 122°19'0 0.0
2015-May-18 05:33N 37°49' W 122°19'0 0.0
2015-May-18 04:33N 37°49' W 122°19'0 0.0
2015-May-18 03:33N 37°49' W 122°19'0 0.0
2015-May-18 02:31N 37°49' W 122°19'1 1.5
2015-May-18 01:33N 37°49' W 122°20'12 9.3
2015-May-18 00:19N 37°60' W 122°25'1010.1
2015-May-17 23:21N 38°04' W 122°14'1 1.0
2015-May-17 22:06N 38°04' W 122°15'5 0.4
2015-May-17 09:08N 38°02' W 122°09'711.1
2015-May-17 08:30N 38°03' W 122°18'10 9.7
2015-May-17 07:30N 37°55' W 122°25'2 2.1
2015-May-17 06:33N 37°55' W 122°22'1 0.9
2015-May-17 05:32N 37°54' W 122°22'3 2.7
2015-May-17 04:33N 37°54' W 122°25'2 1.7
2015-May-17 03:33N 37°54' W 122°23'0 0.0
2015-May-17 02:33N 37°54' W 122°23'0 0.0
2015-May-17 01:33N 37°54' W 122°23'0 0.0
2015-May-17 00:33N 37°54' W 122°23'0 0.0
2015-May-16 23:33N 37°54' W 122°23'1 1.1
2015-May-16 22:33N 37°55' W 122°22'7 7.0
2015-May-16 21:33N 38°02' W 122°22'11 0.4
2015-May-15 14:14N 38°02' W 122°08'3 0.4
2015-May-15 08:20N 38°03' W 122°11'1 1.2
2015-May-15 07:33N 38°03' W 122°12'1 0.1
2015-May-14 17:31N 38°04' W 122°13'1210.5
2015-May-14 16:20N 37°56' W 122°26'810.8
2015-May-14 15:33N 37°49' W 122°21'2 1.9
2015-May-14 14:33N 37°49' W 122°19'0 0.0
2015-May-14 13:33N 37°49' W 122°19'0 0.0
2015-May-14 12:33N 37°49' W 122°19'0 0.0
2015-May-14 11:33N 37°49' W 122°19'0 0.0
2015-May-14 10:33N 37°49' W 122°19'0 0.0
2015-May-14 09:33N 37°49' W 122°19'0 0.0
2015-May-14 08:33N 37°49' W 122°19'0 0.0
2015-May-14 07:33N 37°49' W 122°19'0 0.0
2015-May-14 06:33N 37°49' W 122°19'6 5.6
2015-May-14 05:33N 37°53' W 122°24'2 2.4
2015-May-14 04:33N 37°54' W 122°22'3 2.8
2015-May-14 03:33N 37°54' W 122°25'2 1.7
2015-May-14 02:31N 37°55' W 122°23'1 0.5
2015-May-14 01:32N 37°54' W 122°23'1 0.9
2015-May-14 00:32N 37°55' W 122°22'2 2.2
2015-May-13 23:33N 37°55' W 122°25'1 1.2
2015-May-13 22:33N 37°55' W 122°23'0 0.0
2015-May-13 21:33N 37°55' W 122°23'0 0.0
2015-May-13 20:33N 37°55' W 122°23'0 0.0
2015-May-13 19:33N 37°55' W 122°23'0 0.0
2015-May-13 18:33N 37°55' W 122°23'0 0.0
2015-May-13 17:34N 37°55' W 122°23'0 0.0
2015-May-13 16:33N 37°55' W 122°23'0 0.0
2015-May-13 15:33N 37°55' W 122°23'1 1.1
2015-May-13 14:32N 37°55' W 122°22'3 2.8
2015-May-13 13:33N 37°56' W 122°26'5 4.8
2015-May-13 12:30N 38°01' W 122°24'9 8.3
2015-May-13 11:28N 38°04' W 122°13'2 0.1
2015-May-12 20:16N 38°03' W 122°11'6 7.2
2015-May-12 19:29N 38°03' W 122°18'7 7.4
2015-May-12 18:30N 37°59' W 122°26'8 8.8
2015-May-12 17:33N 37°51' W 122°23'4 3.7
2015-May-12 16:33N 37°49' W 122°19'0 0.0
2015-May-12 15:33N 37°49' W 122°19'0 0.0
2015-May-12 14:33N 37°49' W 122°19'1 0.9
2015-May-12 13:33N 37°49' W 122°20'1 0.9
2015-May-12 12:33N 37°49' W 122°19'0 0.0
2015-May-12 11:33N 37°49' W 122°19'0 0.0
2015-May-12 10:33N 37°49' W 122°19'0 0.0
2015-May-12 09:33N 37°49' W 122°19'0 0.0
2015-May-12 08:33N 37°49' W 122°19'0 0.0
2015-May-12 07:33N 37°49' W 122°19'  

Dump ship's entire track history